Rock Falls, Wisconsin
Current Conditions -  °F | °C
As of 3:49 AM on Tuesday 21 Oct 2014 (Local Time) from KEAU Reporting Station
Haze Haze  
Wind Chill: 36°   Ceiling: Unl
Heat Index: 36°   Visibility: 1.7mi
Dew Point: 35°   Wind: 0mph
Humidity: 97%   Direction: NA
Pressure: 30.13"   Gusts: NA
Location:  44.72°N, 91.69°W
Report Text: KEAU 210849Z AUTO 00000KT 1 3/4SM BR CLR 02/02 A3013 RMK AO2 T00220017
Loading
Personal Weather Stations






























Interactive Weather Map
Tropical Storm Tracking
New forecast layout! Learn more

10-Day Weather Forecast

Advertisements
Track Severe Weather on mobile